Bhutan

Resources for Bhutan vACC (Inactive)

Active Sector File
VECF-master.zip | Release Date 5/24/2017 | Downloads 135 | File Size 6.87 MB

VATSIM Metar for Bhutan
VQPR 130700Z 13008KT 8000 FEW015 SCT025 OVC060 26/14 Q1014